Time;durP1;ratioP1;P1;durP2;ratioP2;P2;SDS_P1;SDS_P2;PMS_P1;PMS_P2;Temp;Humidity;BMP_temperature;BMP_pressure;BME280_temperature;BME280_humidity;BME280_pressure;Samples;Min_cycle;Max_cycle;Signal;HPM_P1;HPM_P2
2022/08/19 00:01:38;;;;;;;32.85;19.10;;;;;;;17.99;78.24;99050.13;5112239;27;20412;-56
2022/08/19 00:04:07;;;;;;;38.10;19.50;;;;;;;18.03;78.00;99053.88;5112453;27;20027;-57
2022/08/19 00:06:33;;;;;;;31.23;19.23;;;;;;;18.01;78.12;99054.16;5097426;27;20364;-56
2022/08/19 00:09:00;;;;;;;30.73;18.20;;;;;;;18.06;78.13;99055.97;5112403;27;20030;-57
2022/08/19 00:11:27;;;;;;;27.70;18.83;;;;;;;18.13;77.70;99058.31;5112198;27;20535;-56
2022/08/19 00:13:53;;;;;;;28.88;17.00;;;;;;;18.09;77.75;99068.94;5111923;27;20059;-56
2022/08/19 00:16:20;;;;;;;36.25;17.67;;;;;;;18.05;78.63;99067.94;5111943;27;20032;-56
2022/08/19 00:18:45;;;;;;;26.77;16.25;;;;;;;18.02;78.84;99063.91;5112549;27;20110;-56
2022/08/19 00:21:11;;;;;;;32.47;18.50;;;;;;;18.10;77.87;99062.44;5111447;27;20072;-56
2022/08/19 00:23:37;;;;;;;32.92;17.33;;;;;;;17.94;78.68;99074.59;5114997;27;20039;-56
2022/08/19 00:26:06;;;;;;;33.13;18.33;;;;;;;17.92;78.58;99065.94;5111935;28;20015;-56
2022/08/19 00:28:32;;;;;;;29.02;18.20;;;;;;;17.96;78.73;99072.41;5115553;27;20059;-56
2022/08/19 00:30:58;;;;;;;30.98;18.73;;;;;;;17.89;78.57;99070.84;5111694;28;20034;-56
2022/08/19 00:33:23;;;;;;;33.88;18.77;;;;;;;17.86;79.28;99079.59;5111784;27;20031;-56
2022/08/19 00:35:49;;;;;;;32.50;17.95;;;;;;;17.97;78.84;99068.59;5093299;27;20027;-56
2022/08/19 00:38:14;;;;;;;32.90;18.05;;;;;;;17.98;78.30;99065.59;5111799;27;20028;-57
2022/08/19 00:40:43;;;;;;;29.70;18.00;;;;;;;17.91;79.10;99072.50;5111481;27;20020;-56
2022/08/19 00:43:10;;;;;;;32.60;18.75;;;;;;;17.69;80.12;99060.28;5111513;27;20019;-56
2022/08/19 00:45:35;;;;;;;29.92;18.45;;;;;;;17.58;80.91;99056.94;5093850;28;20106;-56
2022/08/19 00:48:04;;;;;;;30.65;18.63;;;;;;;17.92;79.31;99057.81;5111677;27;20023;-55
2022/08/19 00:50:29;;;;;;;25.20;16.38;;;;;;;17.94;79.03;99050.19;5111164;27;20040;-56
2022/08/19 00:52:55;;;;;;;27.80;17.30;;;;;;;17.83;79.69;99055.78;5095468;28;20031;-56
2022/08/19 00:55:24;;;;;;;42.55;19.75;;;;;;;17.99;79.36;99047.41;5093041;28;20320;-56
2022/08/19 00:58:06;;;;;;;34.50;20.27;;;;;;;17.99;78.63;99052.84;5099130;28;20022;-56
2022/08/19 01:00:35;;;;;;;38.28;17.85;;;;;;;18.08;78.49;99054.56;5077907;28;20035;-56
2022/08/19 01:03:00;;;;;;;29.98;17.92;;;;;;;18.09;78.81;99056.16;5111174;27;20069;-57
2022/08/19 01:05:28;;;;;;;33.28;17.50;;;;;;;18.16;78.35;99050.38;5101495;27;20019;-57
2022/08/19 01:07:54;;;;;;;30.35;18.20;;;;;;;18.14;78.44;99046.34;5112570;27;20015;-57
2022/08/19 01:10:23;;;;;;;33.80;19.38;;;;;;;18.09;78.73;99049.94;5065226;28;20409;-57
2022/08/19 01:12:48;;;;;;;32.70;17.30;;;;;;;18.04;79.06;99052.75;5100166;28;20126;-57
2022/08/19 01:15:16;;;;;;;34.05;18.58;;;;;;;18.16;78.22;99055.81;5111045;27;20488;-56
2022/08/19 01:17:42;;;;;;;33.75;17.58;;;;;;;18.23;78.02;99053.53;5110973;28;20028;-55
2022/08/19 01:20:13;;;;;;;30.58;16.90;;;;;;;18.23;77.78;99058.94;5092556;27;20448;-56
2022/08/19 01:22:42;;;;;;;29.45;17.50;;;;;;;18.09;78.32;99047.25;5111294;27;20035;-58
2022/08/19 01:25:07;;;;;;;31.42;16.67;;;;;;;18.06;78.45;99047.84;5111212;28;20024;-57
2022/08/19 01:27:38;;;;;;;33.53;18.20;;;;;;;17.95;78.88;99049.91;5085939;28;20108;-57
2022/08/19 01:30:05;;;;;;;29.95;17.33;;;;;;;17.98;78.77;99051.22;5093285;28;20066;-57
2022/08/19 01:32:31;;;;;;;26.83;16.80;;;;;;;17.87;79.11;99058.69;5110657;28;20450;-57
2022/08/19 01:34:56;;;;;;;32.72;16.73;;;;;;;17.84;79.37;99056.59;5110407;28;20028;-58
2022/08/19 01:37:21;;;;;;;29.20;17.35;;;;;;;17.77;79.27;99054.22;5110705;28;20036;-57
2022/08/19 01:39:47;;;;;;;29.83;17.75;;;;;;;17.72;79.88;99051.56;5110873;28;20121;-57
2022/08/19 01:42:12;;;;;;;27.85;16.80;;;;;;;17.64;80.06;99042.19;5092478;28;20062;-57
2022/08/19 01:44:40;;;;;;;28.73;17.45;;;;;;;17.49;81.49;99036.19;5111100;28;20458;-58
2022/08/19 01:47:06;;;;;;;29.17;18.52;;;;;;;17.31;82.51;99041.31;5110900;28;20035;-57
2022/08/19 01:49:32;;;;;;;30.60;18.25;;;;;;;17.27;83.33;99040.28;5110299;28;20023;-58
2022/08/19 01:51:59;;;;;;;28.13;18.98;;;;;;;17.29;83.67;99038.09;5112357;27;20389;-58
2022/08/19 01:54:24;;;;;;;27.83;18.33;;;;;;;17.41;82.32;99045.78;5114489;27;20031;-57
2022/08/19 01:56:51;;;;;;;31.77;17.52;;;;;;;17.50;82.37;99046.75;5096499;27;20024;-57
2022/08/19 01:59:19;;;;;;;38.42;19.17;;;;;;;17.55;82.25;99040.47;5102828;27;20024;-56
2022/08/19 02:01:44;;;;;;;39.65;19.77;;;;;;;17.56;81.86;99039.34;5115773;27;20030;-57
2022/08/19 02:04:10;;;;;;;32.10;19.02;;;;;;;17.55;81.93;99033.13;5114602;27;20393;-57
2022/08/19 02:06:35;;;;;;;33.67;18.85;;;;;;;17.50;82.13;99037.81;5114479;27;20027;-57
2022/08/19 02:09:01;;;;;;;32.45;18.27;;;;;;;17.36;83.03;99027.69;5114585;28;20076;-57
2022/08/19 02:11:31;;;;;;;33.22;17.63;;;;;;;17.32;82.48;99026.66;5114692;27;20034;-57
2022/08/19 02:13:57;;;;;;;;;;;;;;;17.13;83.98;99033.97;5114876;27;20036;-56
2022/08/19 02:16:22;;;;;;;30.52;18.92;;;;;;;17.11;84.48;99031.56;5114367;27;19929;-57
2022/08/19 02:18:50;;;;;;;42.65;22.13;;;;;;;16.95;84.70;99032.84;5114402;27;20402;-57
2022/08/19 02:21:19;;;;;;;37.25;22.20;;;;;;;16.91;85.00;99027.19;5113904;27;20032;-57
2022/08/19 02:23:44;;;;;;;40.97;23.70;;;;;;;16.94;84.98;99025.81;5114209;27;20034;-57
2022/08/19 02:26:09;;;;;;;37.03;22.08;;;;;;;17.09;84.24;99028.31;5096407;27;20039;-57
2022/08/19 02:28:36;;;;;;;35.05;20.77;;;;;;;17.12;83.96;99027.72;5114326;27;20024;-57
2022/08/19 02:31:02;;;;;;;36.90;20.17;;;;;;;17.13;84.08;99029.38;5114152;27;20024;-57
2022/08/19 02:33:27;;;;;;;30.52;19.35;;;;;;;17.03;84.03;99030.28;5100186;27;20035;-57
2022/08/19 02:35:53;;;;;;;32.88;18.77;;;;;;;16.97;84.42;99022.50;5113496;27;20065;-57
2022/08/19 02:38:27;;;;;;;33.38;19.23;;;;;;;16.94;84.79;99020.41;5114246;27;20082;-57
2022/08/19 02:41:01;;;;;;;34.65;19.73;;;;;;;16.89;84.77;99026.66;5114208;27;20163;-57
2022/08/19 02:43:28;;;;;;;34.88;21.25;;;;;;;16.72;86.25;99023.59;5096570;28;20055;-57
2022/08/19 02:45:53;;;;;;;32.63;21.30;;;;;;;16.64;87.49;99029.63;5101423;27;20030;-57
2022/08/19 02:48:19;;;;;;;38.05;22.73;;;;;;;16.83;86.71;99035.16;5114079;27;20393;-57
2022/08/19 02:50:45;;;;;;;38.15;22.90;;;;;;;16.81;86.67;99044.34;5095546;27;20027;-56
2022/08/19 02:53:11;;;;;;;42.90;24.63;;;;;;;16.90;86.24;99051.84;5097706;28;20020;-57
2022/08/19 02:55:42;;;;;;;47.03;25.15;;;;;;;16.89;85.99;99042.91;5114091;27;20035;-57
2022/08/19 02:58:07;;;;;;;48.42;24.88;;;;;;;16.87;86.45;99041.59;5100760;27;20027;-57
2022/08/19 03:00:32;;;;;;;49.55;26.00;;;;;;;16.95;86.00;99039.06;5114422;27;20024;-57
2022/08/19 03:02:58;;;;;;;45.47;26.17;;;;;;;16.98;85.87;99043.91;5105246;27;20389;-57
2022/08/19 03:05:24;;;;;;;45.17;24.83;;;;;;;16.91;86.36;99040.72;5113251;27;20474;-57
2022/08/19 03:07:49;;;;;;;49.08;27.65;;;;;;;16.94;86.30;99042.06;5095682;28;20020;-57
2022/08/19 03:10:15;;;;;;;48.03;27.05;;;;;;;16.95;86.28;99041.78;5113540;27;20042;-57
2022/08/19 03:12:40;;;;;;;47.22;25.55;;;;;;;17.00;85.78;99049.84;5098813;27;20067;-56
2022/08/19 03:15:07;;;;;;;37.15;23.08;;;;;;;16.98;84.89;99049.31;5113447;27;20466;-56
2022/08/19 03:17:32;;;;;;;42.50;24.95;;;;;;;16.80;86.41;99053.56;5095500;28;20039;-57
2022/08/19 03:19:58;;;;;;;47.35;25.58;;;;;;;16.65;88.31;99050.19;5098868;27;20023;-56
2022/08/19 03:22:25;;;;;;;50.28;28.73;;;;;;;16.76;89.06;99057.13;5113170;27;20073;-57
2022/08/19 03:24:50;;;;;;;56.45;29.38;;;;;;;16.85;87.81;99058.13;5113271;27;20039;-56
2022/08/19 03:27:17;;;;;;;52.67;28.70;;;;;;;16.93;87.68;99054.78;5113379;27;20027;-56
2022/08/19 03:29:42;;;;;;;52.92;29.35;;;;;;;17.08;87.22;99061.13;5112960;27;20100;-55
2022/08/19 03:32:08;;;;;;;49.83;27.40;;;;;;;17.01;86.56;99051.44;5112954;27;20466;-56
2022/08/19 03:34:33;;;;;;;52.15;28.42;;;;;;;17.08;86.60;99058.41;5112583;27;20047;-56
2022/08/19 03:37:03;;;;;;;51.13;28.63;;;;;;;17.11;86.39;99052.41;5113152;27;20106;-56
2022/08/19 03:39:28;;;;;;;56.87;29.87;;;;;;;16.95;88.05;99060.72;5113044;27;20024;-56
2022/08/19 03:41:56;;;;;;;48.40;28.02;;;;;;;17.15;86.00;99062.38;5098351;28;20279;-56
2022/08/19 03:44:22;;;;;;;44.13;25.13;;;;;;;17.06;85.87;99066.00;5112404;27;20140;-56
2022/08/19 03:46:57;;;;;;;49.28;30.15;;;;;;;16.72;88.62;99072.31;5116909;27;20037;-56
2022/08/19 03:49:24;;;;;;;64.57;32.25;;;;;;;16.68;89.52;99060.44;5112500;27;20520;-56
2022/08/19 03:51:50;;;;;;;55.15;32.03;;;;;;;16.76;89.04;99062.53;5112803;27;20062;-56
2022/08/19 03:54:18;;;;;;;69.45;32.80;;;;;;;16.71;89.34;99059.88;5112393;27;20110;-56
2022/08/19 03:56:44;;;;;;;64.30;31.48;;;;;;;16.75;88.90;99063.63;5112875;27;20024;-56
2022/08/19 03:59:13;;;;;;;51.30;28.17;;;;;;;16.78;88.45;99063.88;5114003;27;20132;-56
2022/08/19 04:01:38;;;;;;;49.58;27.05;;;;;;;16.76;87.72;99070.63;5096785;28;20365;-56
2022/08/19 04:04:04;;;;;;;38.90;24.00;;;;;;;16.65;87.35;99071.81;5113386;27;20027;-56
2022/08/19 04:06:31;;;;;;;34.40;21.92;;;;;;;16.55;86.81;99068.16;5093248;27;20386;-57
2022/08/19 04:08:57;;;;;;;38.25;21.70;;;;;;;16.24;86.99;99069.50;5112334;27;20088;-57
2022/08/19 04:11:27;;;;;;;36.83;22.50;;;;;;;15.90;90.38;99064.91;5094343;28;20055;-57
2022/08/19 04:13:53;;;;;;;43.00;22.90;;;;;;;15.84;90.50;99063.31;5111082;27;20048;-56
2022/08/19 04:16:19;;;;;;;53.58;28.40;;;;;;;15.81;93.82;99077.41;5112657;27;20089;-57
2022/08/19 04:18:47;;;;;;;45.72;24.42;;;;;;;15.70;90.96;99079.34;5112389;27;20394;-56
2022/08/19 04:21:21;;;;;;;50.90;28.80;;;;;;;15.83;93.80;99084.16;5111604;27;20032;-56
2022/08/19 04:23:46;;;;;;;57.92;27.75;;;;;;;15.92;93.17;99076.22;5112186;27;20043;-56
2022/08/19 04:26:13;;;;;;;49.70;28.02;;;;;;;16.04;92.19;99079.38;5111876;27;20481;-56
2022/08/19 04:28:39;;;;;;;52.00;29.70;;;;;;;16.20;91.50;99077.41;5112073;27;20032;-58
2022/08/19 04:31:04;;;;;;;50.72;28.77;;;;;;;16.09;91.78;99075.84;5116767;27;20549;-59
2022/08/19 04:33:30;;;;;;;60.05;31.65;;;;;;;16.21;93.65;99072.78;5112045;27;20210;-57
2022/08/19 04:35:57;;;;;;;44.90;26.23;;;;;;;16.07;90.88;99069.91;5111536;27;20682;-58
2022/08/19 04:38:23;;;;;;;50.70;27.48;;;;;;;15.87;91.74;99084.38;5111743;27;20145;-57
2022/08/19 04:43:36;;;;;;;56.55;31.13;;;;;;;16.05;94.33;99082.91;5111940;27;20421;-57
2022/08/19 04:46:11;;;;;;;52.55;29.27;;;;;;;16.21;92.57;99091.72;5112162;27;20019;-57
2022/08/19 04:48:37;;;;;;;54.75;30.95;;;;;;;16.24;94.33;99099.25;5093234;27;20050;-57
2022/08/19 04:51:06;;;;;;;54.08;30.92;;;;;;;16.36;91.92;99097.78;5111392;27;20061;-55
2022/08/19 04:53:32;;;;;;;43.00;24.35;;;;;;;16.32;90.35;99096.72;5111446;27;20378;-57
2022/08/19 04:55:58;;;;;;;45.33;26.08;;;;;;;16.46;89.96;99090.69;5111519;27;20023;-56
2022/08/19 04:58:25;;;;;;;49.35;27.70;;;;;;;16.75;88.18;99096.91;5111756;27;20408;-58
2022/08/19 05:00:50;;;;;;;52.25;25.23;;;;;;;16.74;86.54;99097.97;5111741;27;20061;-55
2022/08/19 05:03:16;;;;;;;51.10;25.52;;;;;;;16.28;88.27;99100.31;5112082;27;20032;-56
2022/08/19 05:05:42;;;;;;;47.30;27.20;;;;;;;16.81;87.54;99097.69;5111710;27;20059;-56
2022/08/19 05:08:08;;;;;;;42.97;25.48;;;;;;;16.99;86.78;99109.66;5111647;27;20085;-56
2022/08/19 05:10:40;;;;;;;48.22;28.15;;;;;;;17.13;87.04;99107.09;5112188;28;20462;-56
2022/08/19 05:13:05;;;;;;;43.90;25.80;;;;;;;17.50;85.21;99114.50;5103064;28;20081;-56
2022/08/19 05:15:31;;;;;;;42.10;24.40;;;;;;;17.57;83.66;99106.00;5111075;28;20489;-56
2022/08/19 05:23:24;;;;;;;40.72;23.98;;;;;;;18.18;79.18;99107.84;5111931;27;20039;-57
2022/08/19 05:25:51;;;;;;;42.72;23.23;;;;;;;17.63;81.45;99115.69;5110384;28;20016;-57
2022/08/19 05:28:18;;;;;;;41.22;23.30;;;;;;;17.83;81.25;99107.28;5111848;28;20023;-57
2022/08/19 05:30:44;;;;;;;46.10;24.80;;;;;;;17.85;81.57;99104.28;5110882;28;20053;-58
2022/08/19 05:33:11;;;;;;;41.55;23.67;;;;;;;18.27;79.56;99111.50;5111912;28;20031;-56
2022/08/19 05:35:37;;;;;;;44.65;25.17;;;;;;;18.10;80.36;99103.91;5110924;28;20513;-57
2022/08/19 05:38:03;;;;;;;46.00;25.58;;;;;;;18.09;79.97;99115.03;5111459;28;20385;-58
2022/08/19 05:40:28;;;;;;;51.33;26.27;;;;;;;18.42;78.98;99098.78;5111570;28;20458;-57
2022/08/19 05:42:54;;;;;;;42.60;25.15;;;;;;;18.76;77.04;99106.63;5111137;28;20165;-57
2022/08/19 05:45:20;;;;;;;43.80;26.67;;;;;;;18.55;77.74;99098.03;5099422;28;20035;-57
2022/08/19 05:47:46;;;;;;;44.17;27.42;;;;;;;18.33;79.86;99106.81;5111775;28;20027;-57
2022/08/19 05:50:12;;;;;;;55.38;28.42;;;;;;;17.51;83.67;99101.75;5110882;28;20512;-58
2022/08/19 05:52:38;;;;;;;46.17;28.27;;;;;;;18.60;79.31;99103.38;5111454;28;20038;-57
2022/08/19 05:55:03;;;;;;;46.13;25.63;;;;;;;18.86;78.69;99101.00;5110974;28;20024;-58
2022/08/19 05:57:29;;;;;;;46.25;25.75;;;;;;;19.85;74.33;99106.91;5110967;28;20027;-57
2022/08/19 05:59:54;;;;;;;42.80;25.38;;;;;;;20.80;70.78;99098.59;5075606;28;20016;-58
2022/08/19 06:02:20;;;;;;;42.75;24.83;;;;;;;22.03;66.53;99108.69;5110446;28;20024;-56
2022/08/19 06:04:45;;;;;;;41.78;24.77;;;;;;;22.76;63.48;99102.50;5110451;28;20027;-57
2022/08/19 06:07:10;;;;;;;39.80;24.10;;;;;;;23.01;62.40;99111.75;5111072;28;20020;-57
2022/08/19 06:09:37;;;;;;;50.47;25.55;;;;;;;22.84;62.92;99112.63;5110883;28;20024;-57
2022/08/19 06:12:04;;;;;;;44.10;26.05;;;;;;;22.44;64.26;99126.53;5111401;28;20219;-56
2022/08/19 06:14:31;;;;;;;56.53;26.63;;;;;;;23.14;62.28;99123.59;5111508;28;20065;-57
2022/08/19 06:16:56;;;;;;;47.58;26.45;;;;;;;23.61;61.21;99126.25;5109926;28;20427;-56
2022/08/19 06:19:24;;;;;;;58.90;27.85;;;;;;;24.47;58.74;99126.75;5110410;28;20023;-57
2022/08/19 06:21:50;;;;;;;59.33;28.00;;;;;;;24.31;58.79;99132.84;5093267;28;20032;-57
2022/08/19 06:24:18;;;;;;;56.65;26.35;;;;;;;25.78;55.04;99120.47;5101030;28;20023;-57
2022/08/19 06:26:47;;;;;;;51.53;26.75;;;;;;;26.54;53.35;99123.47;5094765;28;20416;-57
2022/08/19 06:29:14;;;;;;;49.47;26.67;;;;;;;27.00;51.69;99123.84;5110826;28;20035;-57
2022/08/19 06:31:42;;;;;;;48.67;25.77;;;;;;;26.30;54.27;99118.84;5111229;28;20122;-57
2022/08/19 06:34:07;;;;;;;39.72;24.90;;;;;;;25.96;55.67;99121.84;5111178;28;20066;-57
2022/08/19 06:36:37;;;;;;;40.45;25.20;;;;;;;25.52;57.11;99126.34;5110284;28;20020;-57
2022/08/19 06:39:07;;;;;;;44.30;27.50;;;;;;;24.66;61.34;99129.78;5114471;27;20016;-56
2022/08/19 06:41:37;;;;;;;43.42;28.42;;;;;;;24.67;60.48;99134.13;5114982;27;20023;-56
2022/08/19 06:44:03;;;;;;;42.63;26.08;;;;;;;25.69;57.27;99137.06;5114866;27;20023;-56
2022/08/19 06:46:28;;;;;;;42.90;27.15;;;;;;;25.73;57.32;99139.91;5118360;27;20637;-56
2022/08/19 06:48:54;;;;;;;39.60;24.25;;;;;;;25.77;56.55;99146.31;5099721;28;20055;-57
2022/08/19 06:51:20;;;;;;;36.20;23.58;;;;;;;26.76;53.76;99153.13;5096730;28;20031;-56
2022/08/19 06:53:46;;;;;;;38.35;22.27;;;;;;;25.58;56.51;99155.94;5114270;27;20519;-56
2022/08/19 06:56:18;;;;;;;38.17;23.23;;;;;;;25.62;55.18;99161.53;5101330;28;20047;-56
2022/08/19 06:58:44;;;;;;;35.03;20.67;;;;;;;26.88;52.78;99171.47;5114094;27;20032;-56
2022/08/19 07:01:09;;;;;;;36.05;21.95;;;;;;;26.72;52.78;99174.19;5119362;27;20377;-56
2022/08/19 07:03:35;;;;;;;38.70;22.15;;;;;;;25.92;54.66;99170.34;5102562;27;20022;-57
2022/08/19 07:06:05;;;;;;;35.70;22.75;;;;;;;26.51;53.07;99174.41;5113755;27;20128;-56
2022/08/19 07:08:30;;;;;;;35.22;23.13;;;;;;;26.37;53.72;99177.53;5114478;27;20020;-56
2022/08/19 07:10:56;;;;;;;33.38;22.92;;;;;;;26.49;53.73;99182.19;5095781;28;20096;-56
2022/08/19 07:13:21;;;;;;;34.03;22.45;;;;;;;26.45;54.36;99193.06;5113396;28;20331;-56
2022/08/19 07:15:50;;;;;;;45.30;25.58;;;;;;;27.90;50.79;99190.13;5095065;27;20041;-56
2022/08/19 07:18:19;;;;;;;41.13;24.10;;;;;;;27.58;49.78;99197.59;5113646;27;20020;-56
2022/08/19 07:20:45;;;;;;;39.58;26.10;;;;;;;24.73;57.85;99198.53;5113031;27;20247;-56
2022/08/19 07:23:10;;;;;;;43.75;26.58;;;;;;;25.55;55.47;99186.81;5113036;27;20114;-56
2022/08/19 07:25:36;;;;;;;48.10;27.13;;;;;;;25.58;55.92;99188.84;5113303;27;20024;-56
2022/08/19 07:28:02;;;;;;;39.90;27.13;;;;;;;25.08;57.45;99191.88;5113450;27;20034;-56
2022/08/19 07:30:28;;;;;;;44.47;29.67;;;;;;;25.71;56.25;99197.09;5113004;27;20481;-57
2022/08/19 07:32:53;;;;;;;36.40;25.10;;;;;;;25.73;54.88;99194.81;5095013;27;20144;-56
2022/08/19 07:35:19;;;;;;;38.15;24.30;;;;;;;26.19;54.09;99200.94;5100420;27;20080;-56
2022/08/19 07:37:45;;;;;;;42.22;24.20;;;;;;;26.44;52.72;99196.97;5099738;28;20024;-55
2022/08/19 07:40:11;;;;;;;34.05;22.05;;;;;;;25.90;54.36;99196.53;5112879;27;20027;-56
2022/08/19 07:42:36;;;;;;;31.20;20.65;;;;;;;26.79;51.74;99198.34;5113144;27;20024;-57
2022/08/19 07:45:02;;;;;;;36.75;21.27;;;;;;;26.94;51.31;99196.78;5112915;27;20024;-57
2022/08/19 07:47:28;;;;;;;30.92;18.85;;;;;;;27.34;50.60;99201.38;5094621;27;20380;-57
2022/08/19 07:49:53;;;;;;;29.27;19.27;;;;;;;26.13;53.12;99200.38;5111299;27;20024;-58
2022/08/19 07:52:19;;;;;;;30.35;18.00;;;;;;;27.21;49.61;99201.44;5113384;27;20065;-56
2022/08/19 07:54:45;;;;;;;25.38;17.52;;;;;;;27.46;49.03;99201.28;5094486;28;20510;-56
2022/08/19 07:57:11;;;;;;;22.65;16.80;;;;;;;27.73;48.72;99199.53;5112678;27;20015;-55
2022/08/19 07:59:36;;;;;;;28.90;17.95;;;;;;;27.31;48.79;99192.66;5112679;27;20435;-56
2022/08/19 08:02:02;;;;;;;25.15;17.75;;;;;;;26.46;51.94;99199.38;5111782;27;20039;-56
2022/08/19 08:09:56;;;;;;;25.88;16.40;;;;;;;27.76;47.81;99187.81;5113094;27;20558;-55
2022/08/19 08:12:28;;;;;;;27.27;16.50;;;;;;;27.35;47.54;99189.19;5111984;27;20032;-57
2022/08/19 08:14:55;;;;;;;25.38;16.40;;;;;;;28.28;46.55;99188.56;5112429;27;20037;-57
2022/08/19 08:17:22;;;;;;;29.65;15.55;;;;;;;29.00;44.44;99188.00;5112247;27;20031;-57
2022/08/19 08:19:50;;;;;;;19.92;14.77;;;;;;;28.73;45.34;99179.66;5111990;27;20145;-57
2022/08/19 08:25:04;;;;;;;32.88;16.45;;;;;;;29.16;45.39;99190.69;5112111;28;20098;-57
2022/08/19 08:27:30;;;;;;;29.42;18.10;;;;;;;28.34;45.67;99184.38;5112073;27;20024;-55
2022/08/19 08:29:57;;;;;;;33.85;17.13;;;;;;;28.70;45.94;99185.88;5111899;27;20221;-55
2022/08/19 08:32:23;;;;;;;29.25;17.63;;;;;;;27.87;47.85;99190.84;5103282;27;20027;-56
2022/08/19 08:34:48;;;;;;;33.22;17.63;;;;;;;27.69;48.37;99199.47;5111480;27;20042;-56
2022/08/19 08:37:14;;;;;;;35.65;16.02;;;;;;;27.64;48.54;99196.97;5111889;27;20024;-55
2022/08/19 08:39:39;;;;;;;27.27;14.75;;;;;;;28.80;46.27;99190.00;5111570;27;20055;-54
2022/08/19 08:42:12;;;;;;;28.98;16.40;;;;;;;28.70;45.85;99190.59;5115894;27;20031;-55
2022/08/19 08:44:53;;;;;;;25.98;16.25;;;;;;;27.04;49.72;99194.31;5116168;27;20050;-57
2022/08/19 08:47:19;;;;;;;32.03;16.30;;;;;;;27.57;48.12;99190.50;5111942;27;20027;-55
2022/08/19 08:50:06;;;;;;;35.00;15.60;;;;;;;27.61;47.88;99200.47;5079822;28;20355;-54
2022/08/19 08:52:35;;;;;;;26.83;13.73;;;;;;;27.92;46.88;99193.31;5108551;28;20034;-55
2022/08/19 08:55:13;;;;;;;26.53;12.63;;;;;;;28.72;45.30;99188.28;5104321;27;20031;-55
2022/08/19 08:57:54;;;;;;;26.93;14.27;;;;;;;28.01;45.91;99193.91;5095365;28;20059;-56
2022/08/19 09:00:26;;;;;;;22.20;11.52;;;;;;;29.46;42.70;99193.56;5111322;27;20280;-54
2022/08/19 09:02:52;;;;;;;17.98;11.48;;;;;;;28.01;44.94;99193.09;5095146;28;20084;-54
2022/08/19 09:05:20;;;;;;;21.27;12.43;;;;;;;27.82;45.55;99191.13;5110790;27;20051;-56
2022/08/19 09:08:03;;;;;;;22.00;13.23;;;;;;;26.96;46.86;99194.44;5111321;27;20034;-54
2022/08/19 09:10:38;;;;;;;24.13;13.23;;;;;;;26.50;48.53;99193.97;5100552;28;20393;-54
2022/08/19 09:13:22;;;;;;;29.40;14.15;;;;;;;26.39;49.15;99196.41;5089077;28;20079;-55
2022/08/19 09:15:52;;;;;;;38.47;14.40;;;;;;;27.16;46.92;99187.94;5091078;28;20474;-55
2022/08/19 09:18:18;;;;;;;22.48;14.48;;;;;;;27.10;47.36;99192.06;5096962;28;20028;-54
2022/08/19 09:20:44;;;;;;;23.10;14.25;;;;;;;28.18;44.90;99193.50;5089995;28;20074;-56
2022/08/19 09:23:10;;;;;;;17.85;12.68;;;;;;;28.37;44.94;99189.16;5079022;28;20107;-55
2022/08/19 09:25:36;;;;;;;31.42;13.60;;;;;;;27.86;46.01;99192.00;5094893;28;20023;-56
2022/08/19 09:28:03;;;;;;;20.70;14.63;;;;;;;26.90;47.98;99194.72;5092979;28;20110;-55
2022/08/19 09:30:33;;;;;;;30.70;16.20;;;;;;;26.07;49.67;99195.47;5090519;28;20119;-55
2022/08/19 09:32:58;;;;;;;27.15;14.20;;;;;;;26.42;49.12;99181.97;5096501;28;20077;-55
2022/08/19 09:35:26;;;;;;;27.90;17.58;;;;;;;25.42;51.44;99187.97;5090095;28;20610;-55
2022/08/19 09:37:51;;;;;;;24.23;16.15;;;;;;;25.10;52.19;99187.66;5090581;28;20043;-55
2022/08/19 09:40:17;;;;;;;30.23;15.57;;;;;;;25.31;51.78;99190.34;5090451;28;20386;-56
2022/08/19 09:42:44;;;;;;;27.42;17.65;;;;;;;25.41;51.89;99194.59;5090104;28;20027;-55
2022/08/19 09:45:10;;;;;;;28.80;17.95;;;;;;;25.37;51.97;99193.66;5090586;28;20450;-55
2022/08/19 09:47:37;;;;;;;28.77;18.98;;;;;;;25.14;52.49;99183.09;5090431;28;20024;-56
2022/08/19 09:50:07;;;;;;;31.00;18.40;;;;;;;25.11;52.97;99189.28;5090089;28;20444;-56
2022/08/19 09:52:32;;;;;;;33.75;20.60;;;;;;;24.91;53.32;99188.22;5090357;28;20028;-56
2022/08/19 09:54:58;;;;;;;26.42;18.05;;;;;;;24.62;54.33;99191.88;5090332;28;20027;-55
2022/08/19 09:57:23;;;;;;;36.53;19.75;;;;;;;24.72;54.75;99179.69;5089886;28;20540;-56
2022/08/19 09:59:49;;;;;;;29.40;18.13;;;;;;;24.90;54.69;99177.56;5090954;28;20028;-55
2022/08/19 10:02:14;;;;;;;34.45;17.77;;;;;;;25.37;53.54;99188.19;5094045;28;20185;-56
2022/08/19 10:07:24;;;;;;;32.17;21.38;;;;;;;24.73;53.76;99176.59;5090281;28;20101;-56
2022/08/19 10:09:49;;;;;;;29.77;19.60;;;;;;;25.53;51.97;99180.84;5089998;28;20020;-55
2022/08/19 10:12:15;;;;;;;32.33;18.67;;;;;;;25.46;52.72;99175.16;5090675;28;20095;-55
2022/08/19 10:14:40;;;;;;;31.05;18.75;;;;;;;25.50;52.43;99173.31;5093764;28;20070;-56
2022/08/19 10:17:06;;;;;;;39.00;19.58;;;;;;;25.47;52.18;99171.25;5094131;28;20027;-56
2022/08/19 10:19:35;;;;;;;39.65;20.45;;;;;;;24.92;53.55;99175.28;5093748;28;20133;-55
2022/08/19 10:22:03;;;;;;;29.33;19.02;;;;;;;25.49;52.86;99168.97;5095837;28;20028;-55
2022/08/19 10:24:30;;;;;;;33.25;20.48;;;;;;;25.43;52.46;99164.84;5097964;28;20093;-54
2022/08/19 10:26:56;;;;;;;35.22;18.70;;;;;;;25.75;51.55;99162.31;5093949;28;20458;-55
2022/08/19 10:29:21;;;;;;;26.65;17.52;;;;;;;26.64;48.86;99164.16;5094096;27;20031;-55
2022/08/19 10:31:47;;;;;;;33.30;19.58;;;;;;;26.38;49.92;99165.38;5093989;28;20031;-55
2022/08/19 10:34:12;;;;;;;34.08;19.02;;;;;;;25.97;49.64;99156.38;5093537;28;20035;-56
2022/08/19 10:36:38;;;;;;;31.90;17.05;;;;;;;26.93;48.18;99156.66;5093185;28;20039;-56
2022/08/19 10:39:06;;;;;;;26.45;16.60;;;;;;;27.21;48.20;99151.09;5093533;28;20501;-55
2022/08/19 10:41:33;;;;;;;33.58;19.98;;;;;;;27.05;47.06;99154.63;5092424;28;20024;-56
2022/08/19 10:44:01;;;;;;;29.77;17.23;;;;;;;26.92;48.14;99152.34;5093660;28;20024;-55
2022/08/19 10:46:27;;;;;;;29.23;20.02;;;;;;;26.93;47.75;99156.66;5092382;28;20085;-56
2022/08/19 10:48:53;;;;;;;26.20;17.35;;;;;;;27.42;46.54;99145.34;5093342;28;20470;-55
2022/08/19 10:54:02;;;;;;;25.98;16.27;;;;;;;27.28;46.75;99141.09;5093595;28;20073;-55
2022/08/19 10:59:15;;;;;;;31.58;17.38;;;;;;;27.10;46.77;99131.56;5093426;28;20444;-55
2022/08/19 11:01:42;;;;;;;26.83;17.70;;;;;;;26.52;47.43;99125.72;5093122;28;20073;-54
2022/08/19 11:04:09;;;;;;;28.73;15.35;;;;;;;26.50;47.60;99131.56;5093066;28;20023;-54
2022/08/19 11:06:36;;;;;;;30.60;14.98;;;;;;;27.58;45.91;99134.28;5092703;28;20028;-54
2022/08/19 11:09:01;;;;;;;51.15;18.13;;;;;;;27.38;46.45;99134.22;5093513;28;20030;-54
2022/08/19 11:11:28;;;;;;;26.88;15.32;;;;;;;27.45;45.75;99134.41;5093804;28;20259;-54
2022/08/19 11:13:53;;;;;;;29.05;15.13;;;;;;;26.81;45.61;99128.09;5092482;28;20047;-55
2022/08/19 11:16:21;;;;;;;23.38;14.75;;;;;;;27.30;45.11;99130.50;5093127;28;20040;-55
2022/08/19 11:18:51;;;;;;;33.45;14.32;;;;;;;27.64;44.65;99141.91;5091553;28;20104;-54
2022/08/19 11:21:19;;;;;;;26.60;15.65;;;;;;;27.63;43.76;99137.59;5092378;28;20036;-57
2022/08/19 11:23:46;;;;;;;24.90;15.63;;;;;;;28.21;43.31;99119.53;5092865;28;20119;-54
2022/08/19 11:26:12;;;;;;;36.55;15.73;;;;;;;27.71;44.77;99122.81;5092715;28;20024;-57
2022/08/19 11:28:38;;;;;;;26.63;14.68;;;;;;;27.87;44.01;99127.50;5092371;28;20027;-55
2022/08/19 11:31:04;;;;;;;31.13;15.20;;;;;;;27.38;44.67;99112.22;5092744;28;20039;-55
2022/08/19 11:33:30;;;;;;;23.00;15.50;;;;;;;26.63;46.65;99124.06;5093283;28;20474;-56
2022/08/19 11:35:58;;;;;;;29.27;18.02;;;;;;;26.22;46.55;99117.84;5091773;28;20020;-56
2022/08/19 11:38:23;;;;;;;25.67;14.43;;;;;;;27.42;45.63;99107.59;5092511;28;20032;-56
2022/08/19 11:40:59;;;;;;;25.35;14.93;;;;;;;27.20;45.29;99109.03;5092443;28;20035;-56